If you wish to contribute or participate in the discussions about articles you are invited to join SKYbrary as a registered user

 Actions

Annecy-Haute-Savoie-Mont Blanc Airport

From SKYbrary Wiki

LFLP
Airport
ICAO: LFLP – IATA: NCY
Summary
Name Annecy-Haute-Savoie-Mont Blanc Airport
Region Europe
Territory France FR.gif
Location , Rhone-Alpes
Serving Annecy
Elevation 463.601 m <br />1,521 ft <br />1,521 ft463.601 m <br />
Type medium airport
Coordinates 45° 55' 45.24" N, 6° 5' 55.55" E
Runways
Designator Length Width Surface ROPS
4/22 1630 m5,347.769 ft <br /> 30 m98.425 ft <br /> ASP yes/yes


METAR
Observation LFLP 151100Z AUTO VRB02KT CAVOK 14/06 Q1019 NOSIG
Station ANNECY/MEYTHET
Date/Time 15 October 2021 11:00:00
Wind direction °
Wind speed 02 kts
Lowest cloud amount clouds and visibility OK
Temperature 14°C
Dew point 6°C
Humidity 58%
QNH 1019 hPa
Weather condition n/a